Terminal Aerodrome Forecast
Issued by NWS

Home | Current Version | Previous Version | Text Only | Print | Product List | Glossary On
Versions: 1 2 3 4 5 6 7 8 9 10 11 12 13 14 15 16 17 18
000
FTUS43 KSGF 051700
TAFJLN
TAF
KJLN 051720Z 0518/0618 19011KT P6SM SCT250
     FM060000 18010KT P6SM SKC
     FM060600 18012KT P6SM SCT250 WS018/22040KT
     FM061500 20015G22KT P6SM BKN050=

USA.gov is the U.S. government's official web portal to all federal, state and local government web resources and services.